sensor_id;sensor_type;location;lat;lon;timestamp;P1;durP1;ratioP1;P2;durP2;ratioP2
10244;SDS011;5167;52.164;10.530;2023-11-19T00:01:32;1.10;;;1.10;;
10244;SDS011;5167;52.164;10.530;2023-11-19T00:03:58;1.40;;;1.23;;
10244;SDS011;5167;52.164;10.530;2023-11-19T00:06:23;1.17;;;1.13;;
10244;SDS011;5167;52.164;10.530;2023-11-19T00:08:50;1.17;;;1.07;;
10244;SDS011;5167;52.164;10.530;2023-11-19T00:11:16;0.90;;;0.90;;
10244;SDS011;5167;52.164;10.530;2023-11-19T00:13:42;1.03;;;1.03;;
10244;SDS011;5167;52.164;10.530;2023-11-19T00:16:07;0.90;;;0.90;;
10244;SDS011;5167;52.164;10.530;2023-11-19T00:18:34;4.00;;;1.00;;
10244;SDS011;5167;52.164;10.530;2023-11-19T00:21:01;0.90;;;0.90;;
10244;SDS011;5167;52.164;10.530;2023-11-19T00:23:27;0.90;;;0.90;;
10244;SDS011;5167;52.164;10.530;2023-11-19T00:25:53;0.83;;;0.83;;
10244;SDS011;5167;52.164;10.530;2023-11-19T00:28:18;0.80;;;0.80;;
10244;SDS011;5167;52.164;10.530;2023-11-19T00:30:44;1.10;;;1.00;;
10244;SDS011;5167;52.164;10.530;2023-11-19T00:33:09;0.97;;;0.90;;
10244;SDS011;5167;52.164;10.530;2023-11-19T00:35:35;0.93;;;0.87;;
10244;SDS011;5167;52.164;10.530;2023-11-19T00:38:01;1.00;;;1.00;;
10244;SDS011;5167;52.164;10.530;2023-11-19T00:40:27;1.87;;;0.90;;
10244;SDS011;5167;52.164;10.530;2023-11-19T00:42:53;0.90;;;0.90;;
10244;SDS011;5167;52.164;10.530;2023-11-19T00:45:19;0.80;;;0.80;;
10244;SDS011;5167;52.164;10.530;2023-11-19T00:47:44;0.80;;;0.77;;
10244;SDS011;5167;52.164;10.530;2023-11-19T00:50:10;0.70;;;0.70;;
10244;SDS011;5167;52.164;10.530;2023-11-19T00:52:36;0.60;;;0.60;;
10244;SDS011;5167;52.164;10.530;2023-11-19T00:55:03;0.90;;;0.90;;
10244;SDS011;5167;52.164;10.530;2023-11-19T00:57:30;0.70;;;0.70;;
10244;SDS011;5167;52.164;10.530;2023-11-19T00:59:58;0.60;;;0.60;;
10244;SDS011;5167;52.164;10.530;2023-11-19T01:02:26;0.70;;;0.70;;
10244;SDS011;5167;52.164;10.530;2023-11-19T01:04:51;0.60;;;0.60;;
10244;SDS011;5167;52.164;10.530;2023-11-19T01:07:17;0.60;;;0.60;;
10244;SDS011;5167;52.164;10.530;2023-11-19T01:09:43;0.60;;;0.60;;
10244;SDS011;5167;52.164;10.530;2023-11-19T01:12:08;0.70;;;0.70;;
10244;SDS011;5167;52.164;10.530;2023-11-19T01:14:35;0.83;;;0.83;;
10244;SDS011;5167;52.164;10.530;2023-11-19T01:17:00;0.60;;;0.60;;
10244;SDS011;5167;52.164;10.530;2023-11-19T01:19:26;0.50;;;0.50;;
10244;SDS011;5167;52.164;10.530;2023-11-19T01:21:53;0.67;;;0.67;;
10244;SDS011;5167;52.164;10.530;2023-11-19T01:24:19;0.70;;;0.70;;
10244;SDS011;5167;52.164;10.530;2023-11-19T01:26:45;0.77;;;0.77;;
10244;SDS011;5167;52.164;10.530;2023-11-19T01:29:12;0.60;;;0.60;;
10244;SDS011;5167;52.164;10.530;2023-11-19T01:31:41;0.90;;;0.90;;
10244;SDS011;5167;52.164;10.530;2023-11-19T01:34:07;0.97;;;0.83;;
10244;SDS011;5167;52.164;10.530;2023-11-19T01:36:33;0.70;;;0.70;;
10244;SDS011;5167;52.164;10.530;2023-11-19T01:38:59;0.77;;;0.77;;
10244;SDS011;5167;52.164;10.530;2023-11-19T01:41:24;1.20;;;0.67;;
10244;SDS011;5167;52.164;10.530;2023-11-19T01:43:50;0.70;;;0.70;;
10244;SDS011;5167;52.164;10.530;2023-11-19T01:46:15;0.70;;;0.70;;
10244;SDS011;5167;52.164;10.530;2023-11-19T01:48:42;0.80;;;0.80;;
10244;SDS011;5167;52.164;10.530;2023-11-19T01:51:10;0.80;;;0.80;;
10244;SDS011;5167;52.164;10.530;2023-11-19T01:53:37;0.70;;;0.70;;
10244;SDS011;5167;52.164;10.530;2023-11-19T01:56:04;0.70;;;0.70;;
10244;SDS011;5167;52.164;10.530;2023-11-19T01:58:34;0.60;;;0.60;;
10244;SDS011;5167;52.164;10.530;2023-11-19T02:01:00;0.60;;;0.60;;
10244;SDS011;5167;52.164;10.530;2023-11-19T02:03:28;0.60;;;0.60;;
10244;SDS011;5167;52.164;10.530;2023-11-19T02:05:56;0.63;;;0.63;;
10244;SDS011;5167;52.164;10.530;2023-11-19T02:08:22;1.70;;;0.70;;
10244;SDS011;5167;52.164;10.530;2023-11-19T02:10:48;0.60;;;0.60;;
10244;SDS011;5167;52.164;10.530;2023-11-19T02:13:13;0.60;;;0.60;;
10244;SDS011;5167;52.164;10.530;2023-11-19T02:15:40;0.50;;;0.50;;
10244;SDS011;5167;52.164;10.530;2023-11-19T02:18:19;0.47;;;0.47;;
10244;SDS011;5167;52.164;10.530;2023-11-19T02:20:49;0.50;;;0.50;;
10244;SDS011;5167;52.164;10.530;2023-11-19T02:23:15;0.50;;;0.50;;
10244;SDS011;5167;52.164;10.530;2023-11-19T02:25:41;0.53;;;0.53;;
10244;SDS011;5167;52.164;10.530;2023-11-19T02:28:08;0.60;;;0.60;;
10244;SDS011;5167;52.164;10.530;2023-11-19T02:30:36;0.40;;;0.40;;
10244;SDS011;5167;52.164;10.530;2023-11-19T02:33:02;0.60;;;0.60;;
10244;SDS011;5167;52.164;10.530;2023-11-19T02:35:30;0.40;;;0.40;;
10244;SDS011;5167;52.164;10.530;2023-11-19T02:37:57;0.40;;;0.40;;
10244;SDS011;5167;52.164;10.530;2023-11-19T02:40:24;0.50;;;0.50;;
10244;SDS011;5167;52.164;10.530;2023-11-19T02:42:50;1.45;;;0.50;;
10244;SDS011;5167;52.164;10.530;2023-11-19T02:45:16;0.40;;;0.40;;
10244;SDS011;5167;52.164;10.530;2023-11-19T02:47:42;0.60;;;0.60;;
10244;SDS011;5167;52.164;10.530;2023-11-19T02:50:11;1.55;;;0.70;;
10244;SDS011;5167;52.164;10.530;2023-11-19T02:52:43;0.50;;;0.50;;
10244;SDS011;5167;52.164;10.530;2023-11-19T02:55:10;1.55;;;0.40;;
10244;SDS011;5167;52.164;10.530;2023-11-19T02:57:40;1.20;;;0.52;;
10244;SDS011;5167;52.164;10.530;2023-11-19T03:00:20;0.40;;;0.40;;
10244;SDS011;5167;52.164;10.530;2023-11-19T03:02:50;0.47;;;0.47;;
10244;SDS011;5167;52.164;10.530;2023-11-19T03:05:30;0.40;;;0.40;;
10244;SDS011;5167;52.164;10.530;2023-11-19T03:07:56;0.50;;;0.50;;
10244;SDS011;5167;52.164;10.530;2023-11-19T03:10:22;0.50;;;0.50;;
10244;SDS011;5167;52.164;10.530;2023-11-19T03:12:48;1.17;;;0.50;;
10244;SDS011;5167;52.164;10.530;2023-11-19T03:15:14;0.52;;;0.52;;
10244;SDS011;5167;52.164;10.530;2023-11-19T03:17:41;0.40;;;0.40;;
10244;SDS011;5167;52.164;10.530;2023-11-19T03:20:08;0.50;;;0.50;;
10244;SDS011;5167;52.164;10.530;2023-11-19T03:22:38;0.50;;;0.50;;
10244;SDS011;5167;52.164;10.530;2023-11-19T03:25:03;0.50;;;0.50;;
10244;SDS011;5167;52.164;10.530;2023-11-19T03:27:29;0.40;;;0.40;;
10244;SDS011;5167;52.164;10.530;2023-11-19T03:29:55;0.50;;;0.50;;
10244;SDS011;5167;52.164;10.530;2023-11-19T03:32:20;0.50;;;0.50;;
10244;SDS011;5167;52.164;10.530;2023-11-19T03:34:46;0.43;;;0.43;;
10244;SDS011;5167;52.164;10.530;2023-11-19T03:37:11;0.50;;;0.50;;
10244;SDS011;5167;52.164;10.530;2023-11-19T03:39:41;0.60;;;0.60;;
10244;SDS011;5167;52.164;10.530;2023-11-19T03:42:07;0.85;;;0.70;;
10244;SDS011;5167;52.164;10.530;2023-11-19T03:44:32;0.60;;;0.60;;
10244;SDS011;5167;52.164;10.530;2023-11-19T03:46:58;0.70;;;0.70;;
10244;SDS011;5167;52.164;10.530;2023-11-19T03:49:23;1.58;;;0.80;;
10244;SDS011;5167;52.164;10.530;2023-11-19T03:51:49;0.60;;;0.60;;
10244;SDS011;5167;52.164;10.530;2023-11-19T03:54:14;2.47;;;0.70;;
10244;SDS011;5167;52.164;10.530;2023-11-19T03:56:40;0.60;;;0.60;;
10244;SDS011;5167;52.164;10.530;2023-11-19T03:59:05;0.82;;;0.82;;
10244;SDS011;5167;52.164;10.530;2023-11-19T04:01:31;1.13;;;0.50;;
10244;SDS011;5167;52.164;10.530;2023-11-19T04:03:56;0.70;;;0.70;;
10244;SDS011;5167;52.164;10.530;2023-11-19T04:06:22;1.55;;;0.60;;
10244;SDS011;5167;52.164;10.530;2023-11-19T04:08:47;0.75;;;0.75;;
10244;SDS011;5167;52.164;10.530;2023-11-19T04:11:14;0.60;;;0.60;;
10244;SDS011;5167;52.164;10.530;2023-11-19T04:13:40;0.68;;;0.68;;
10244;SDS011;5167;52.164;10.530;2023-11-19T04:16:05;0.57;;;0.57;;
10244;SDS011;5167;52.164;10.530;2023-11-19T04:18:31;1.17;;;0.50;;
10244;SDS011;5167;52.164;10.530;2023-11-19T04:20:59;0.68;;;0.68;;
10244;SDS011;5167;52.164;10.530;2023-11-19T04:23:25;0.65;;;0.65;;
10244;SDS011;5167;52.164;10.530;2023-11-19T04:25:50;0.80;;;0.80;;
10244;SDS011;5167;52.164;10.530;2023-11-19T04:28:16;0.70;;;0.70;;
10244;SDS011;5167;52.164;10.530;2023-11-19T04:30:42;1.27;;;0.80;;
10244;SDS011;5167;52.164;10.530;2023-11-19T04:33:09;1.23;;;0.88;;
10244;SDS011;5167;52.164;10.530;2023-11-19T04:35:35;0.90;;;0.90;;
10244;SDS011;5167;52.164;10.530;2023-11-19T04:38:00;1.05;;;0.75;;
10244;SDS011;5167;52.164;10.530;2023-11-19T04:40:25;2.75;;;1.05;;
10244;SDS011;5167;52.164;10.530;2023-11-19T04:42:51;1.02;;;1.02;;
10244;SDS011;5167;52.164;10.530;2023-11-19T04:45:16;3.40;;;1.13;;
10244;SDS011;5167;52.164;10.530;2023-11-19T04:47:42;1.20;;;1.20;;
10244;SDS011;5167;52.164;10.530;2023-11-19T04:50:08;2.63;;;1.20;;
10244;SDS011;5167;52.164;10.530;2023-11-19T04:52:39;1.30;;;0.98;;
10244;SDS011;5167;52.164;10.530;2023-11-19T04:55:05;1.40;;;1.30;;
10244;SDS011;5167;52.164;10.530;2023-11-19T04:57:31;2.30;;;1.30;;
10244;SDS011;5167;52.164;10.530;2023-11-19T04:59:57;1.65;;;1.40;;
10244;SDS011;5167;52.164;10.530;2023-11-19T05:02:23;3.33;;;1.00;;
10244;SDS011;5167;52.164;10.530;2023-11-19T05:04:49;1.20;;;1.10;;
10244;SDS011;5167;52.164;10.530;2023-11-19T05:07:14;2.45;;;1.30;;
10244;SDS011;5167;52.164;10.530;2023-11-19T05:09:39;2.30;;;1.50;;
10244;SDS011;5167;52.164;10.530;2023-11-19T05:12:05;2.88;;;1.40;;
10244;SDS011;5167;52.164;10.530;2023-11-19T05:14:34;1.50;;;1.40;;
10244;SDS011;5167;52.164;10.530;2023-11-19T05:17:00;1.00;;;1.00;;
10244;SDS011;5167;52.164;10.530;2023-11-19T05:19:25;1.20;;;1.15;;
10244;SDS011;5167;52.164;10.530;2023-11-19T05:21:51;1.70;;;1.17;;
10244;SDS011;5167;52.164;10.530;2023-11-19T05:24:17;1.15;;;1.05;;
10244;SDS011;5167;52.164;10.530;2023-11-19T05:26:42;1.70;;;0.93;;
10244;SDS011;5167;52.164;10.530;2023-11-19T05:29:08;1.08;;;0.88;;
10244;SDS011;5167;52.164;10.530;2023-11-19T05:31:34;0.82;;;0.82;;
10244;SDS011;5167;52.164;10.530;2023-11-19T05:33:59;0.95;;;0.95;;
10244;SDS011;5167;52.164;10.530;2023-11-19T05:36:25;0.90;;;0.90;;
10244;SDS011;5167;52.164;10.530;2023-11-19T05:38:50;1.30;;;1.20;;
10244;SDS011;5167;52.164;10.530;2023-11-19T05:41:16;0.93;;;0.93;;
10244;SDS011;5167;52.164;10.530;2023-11-19T05:43:42;1.00;;;1.00;;
10244;SDS011;5167;52.164;10.530;2023-11-19T05:46:07;2.55;;;0.90;;
10244;SDS011;5167;52.164;10.530;2023-11-19T05:48:33;5.10;;;1.10;;
10244;SDS011;5167;52.164;10.530;2023-11-19T05:50:59;1.20;;;1.10;;
10244;SDS011;5167;52.164;10.530;2023-11-19T05:53:25;1.83;;;1.08;;
10244;SDS011;5167;52.164;10.530;2023-11-19T05:55:50;1.73;;;1.02;;
10244;SDS011;5167;52.164;10.530;2023-11-19T05:58:26;1.95;;;1.23;;
10244;SDS011;5167;52.164;10.530;2023-11-19T06:00:54;1.20;;;1.20;;
10244;SDS011;5167;52.164;10.530;2023-11-19T06:03:20;2.42;;;1.38;;
10244;SDS011;5167;52.164;10.530;2023-11-19T06:05:47;1.02;;;1.02;;
10244;SDS011;5167;52.164;10.530;2023-11-19T06:08:14;3.58;;;1.10;;
10244;SDS011;5167;52.164;10.530;2023-11-19T06:10:42;3.72;;;1.20;;
10244;SDS011;5167;52.164;10.530;2023-11-19T06:13:11;2.25;;;1.13;;
10244;SDS011;5167;52.164;10.530;2023-11-19T06:15:36;2.70;;;1.15;;
10244;SDS011;5167;52.164;10.530;2023-11-19T06:18:02;3.05;;;1.40;;
10244;SDS011;5167;52.164;10.530;2023-11-19T06:20:32;1.70;;;1.10;;
10244;SDS011;5167;52.164;10.530;2023-11-19T06:22:58;1.40;;;1.23;;
10244;SDS011;5167;52.164;10.530;2023-11-19T06:25:24;8.52;;;2.30;;
10244;SDS011;5167;52.164;10.530;2023-11-19T06:27:50;4.93;;;1.35;;
10244;SDS011;5167;52.164;10.530;2023-11-19T06:30:16;2.20;;;1.50;;
10244;SDS011;5167;52.164;10.530;2023-11-19T06:32:42;5.38;;;1.60;;
10244;SDS011;5167;52.164;10.530;2023-11-19T06:35:07;1.98;;;1.55;;
10244;SDS011;5167;52.164;10.530;2023-11-19T06:37:34;5.47;;;1.83;;
10244;SDS011;5167;52.164;10.530;2023-11-19T06:40:06;4.57;;;1.85;;
10244;SDS011;5167;52.164;10.530;2023-11-19T06:42:34;2.10;;;1.65;;
10244;SDS011;5167;52.164;10.530;2023-11-19T06:44:59;3.00;;;1.70;;
10244;SDS011;5167;52.164;10.530;2023-11-19T06:47:28;3.97;;;1.60;;
10244;SDS011;5167;52.164;10.530;2023-11-19T06:49:54;4.55;;;1.80;;
10244;SDS011;5167;52.164;10.530;2023-11-19T06:52:20;7.68;;;1.98;;
10244;SDS011;5167;52.164;10.530;2023-11-19T06:54:45;4.78;;;1.70;;
10244;SDS011;5167;52.164;10.530;2023-11-19T06:57:11;2.78;;;1.67;;
10244;SDS011;5167;52.164;10.530;2023-11-19T06:59:37;4.47;;;1.75;;
10244;SDS011;5167;52.164;10.530;2023-11-19T07:02:02;2.72;;;1.67;;
10244;SDS011;5167;52.164;10.530;2023-11-19T07:04:29;4.18;;;2.00;;
10244;SDS011;5167;52.164;10.530;2023-11-19T07:06:55;4.65;;;2.08;;
10244;SDS011;5167;52.164;10.530;2023-11-19T07:09:20;3.05;;;2.05;;
10244;SDS011;5167;52.164;10.530;2023-11-19T07:11:46;2.58;;;2.08;;
10244;SDS011;5167;52.164;10.530;2023-11-19T07:14:12;1.95;;;1.80;;
10244;SDS011;5167;52.164;10.530;2023-11-19T07:16:38;5.90;;;1.77;;
10244;SDS011;5167;52.164;10.530;2023-11-19T07:19:06;5.53;;;1.55;;
10244;SDS011;5167;52.164;10.530;2023-11-19T07:21:32;3.50;;;2.08;;
10244;SDS011;5167;52.164;10.530;2023-11-19T07:23:58;3.33;;;1.95;;
10244;SDS011;5167;52.164;10.530;2023-11-19T07:26:24;3.00;;;1.63;;
10244;SDS011;5167;52.164;10.530;2023-11-19T07:28:50;3.80;;;2.10;;
10244;SDS011;5167;52.164;10.530;2023-11-19T07:31:15;3.05;;;2.45;;
10244;SDS011;5167;52.164;10.530;2023-11-19T07:33:41;10.32;;;1.90;;
10244;SDS011;5167;52.164;10.530;2023-11-19T07:36:08;6.53;;;2.33;;
10244;SDS011;5167;52.164;10.530;2023-11-19T07:38:34;3.13;;;1.77;;
10244;SDS011;5167;52.164;10.530;2023-11-19T07:40:59;6.57;;;2.38;;
10244;SDS011;5167;52.164;10.530;2023-11-19T07:43:25;2.17;;;2.00;;
10244;SDS011;5167;52.164;10.530;2023-11-19T07:45:51;6.32;;;1.67;;
10244;SDS011;5167;52.164;10.530;2023-11-19T07:48:16;7.80;;;2.20;;
10244;SDS011;5167;52.164;10.530;2023-11-19T07:50:47;3.15;;;2.03;;
10244;SDS011;5167;52.164;10.530;2023-11-19T07:53:15;2.88;;;2.30;;
10244;SDS011;5167;52.164;10.530;2023-11-19T07:55:41;5.22;;;2.20;;
10244;SDS011;5167;52.164;10.530;2023-11-19T07:58:06;7.00;;;2.05;;
10244;SDS011;5167;52.164;10.530;2023-11-19T08:00:32;3.55;;;1.83;;
10244;SDS011;5167;52.164;10.530;2023-11-19T08:02:57;2.72;;;2.10;;
10244;SDS011;5167;52.164;10.530;2023-11-19T08:05:23;8.43;;;2.20;;
10244;SDS011;5167;52.164;10.530;2023-11-19T08:07:49;5.75;;;2.63;;
10244;SDS011;5167;52.164;10.530;2023-11-19T08:10:16;3.67;;;2.08;;
10244;SDS011;5167;52.164;10.530;2023-11-19T08:12:41;7.45;;;2.20;;
10244;SDS011;5167;52.164;10.530;2023-11-19T08:15:07;3.47;;;2.30;;
10244;SDS011;5167;52.164;10.530;2023-11-19T08:17:33;5.25;;;2.33;;
10244;SDS011;5167;52.164;10.530;2023-11-19T08:19:58;6.57;;;2.90;;
10244;SDS011;5167;52.164;10.530;2023-11-19T08:22:25;11.30;;;2.63;;
10244;SDS011;5167;52.164;10.530;2023-11-19T08:24:50;6.10;;;3.25;;
10244;SDS011;5167;52.164;10.530;2023-11-19T08:27:16;14.75;;;3.85;;
10244;SDS011;5167;52.164;10.530;2023-11-19T08:29:41;13.85;;;3.53;;
10244;SDS011;5167;52.164;10.530;2023-11-19T08:32:07;11.77;;;3.78;;
10244;SDS011;5167;52.164;10.530;2023-11-19T08:34:32;8.88;;;4.15;;
10244;SDS011;5167;52.164;10.530;2023-11-19T08:36:59;10.50;;;3.72;;
10244;SDS011;5167;52.164;10.530;2023-11-19T08:39:24;15.07;;;4.30;;
10244;SDS011;5167;52.164;10.530;2023-11-19T08:41:50;9.15;;;3.75;;
10244;SDS011;5167;52.164;10.530;2023-11-19T08:44:16;13.50;;;4.13;;
10244;SDS011;5167;52.164;10.530;2023-11-19T08:46:48;15.93;;;4.68;;
10244;SDS011;5167;52.164;10.530;2023-11-19T08:49:14;12.70;;;3.53;;
10244;SDS011;5167;52.164;10.530;2023-11-19T08:51:39;17.25;;;3.63;;
10244;SDS011;5167;52.164;10.530;2023-11-19T08:54:05;11.40;;;3.72;;
10244;SDS011;5167;52.164;10.530;2023-11-19T08:56:31;10.80;;;3.53;;
10244;SDS011;5167;52.164;10.530;2023-11-19T08:58:57;18.02;;;4.07;;
10244;SDS011;5167;52.164;10.530;2023-11-19T09:01:23;14.07;;;3.70;;
10244;SDS011;5167;52.164;10.530;2023-11-19T09:03:49;13.43;;;4.35;;
10244;SDS011;5167;52.164;10.530;2023-11-19T09:06:15;15.90;;;4.25;;
10244;SDS011;5167;52.164;10.530;2023-11-19T09:08:41;9.93;;;3.83;;
10244;SDS011;5167;52.164;10.530;2023-11-19T09:11:07;14.30;;;3.47;;
10244;SDS011;5167;52.164;10.530;2023-11-19T09:13:34;15.63;;;3.90;;
10244;SDS011;5167;52.164;10.530;2023-11-19T09:16:00;14.38;;;4.55;;
10244;SDS011;5167;52.164;10.530;2023-11-19T09:18:28;12.88;;;3.05;;
10244;SDS011;5167;52.164;10.530;2023-11-19T09:20:57;15.55;;;3.63;;
10244;SDS011;5167;52.164;10.530;2023-11-19T09:23:23;17.95;;;3.70;;
10244;SDS011;5167;52.164;10.530;2023-11-19T09:25:50;15.85;;;3.38;;
10244;SDS011;5167;52.164;10.530;2023-11-19T09:28:16;9.82;;;3.65;;
10244;SDS011;5167;52.164;10.530;2023-11-19T09:30:41;12.27;;;3.63;;
10244;SDS011;5167;52.164;10.530;2023-11-19T09:33:07;12.68;;;3.92;;
10244;SDS011;5167;52.164;10.530;2023-11-19T09:35:32;25.05;;;4.88;;
10244;SDS011;5167;52.164;10.530;2023-11-19T09:37:58;26.30;;;4.13;;
10244;SDS011;5167;52.164;10.530;2023-11-19T09:40:24;13.20;;;3.45;;
10244;SDS011;5167;52.164;10.530;2023-11-19T09:42:49;18.73;;;3.70;;
10244;SDS011;5167;52.164;10.530;2023-11-19T09:45:16;17.08;;;3.30;;
10244;SDS011;5167;52.164;10.530;2023-11-19T09:47:45;15.65;;;3.45;;
10244;SDS011;5167;52.164;10.530;2023-11-19T09:50:15;13.88;;;4.13;;
10244;SDS011;5167;52.164;10.530;2023-11-19T09:52:43;23.80;;;5.10;;
10244;SDS011;5167;52.164;10.530;2023-11-19T09:55:09;15.75;;;3.92;;
10244;SDS011;5167;52.164;10.530;2023-11-19T09:57:35;17.35;;;4.03;;
10244;SDS011;5167;52.164;10.530;2023-11-19T10:00:03;15.93;;;4.40;;
10244;SDS011;5167;52.164;10.530;2023-11-19T10:02:33;16.27;;;4.43;;
10244;SDS011;5167;52.164;10.530;2023-11-19T10:05:02;15.98;;;4.85;;
10244;SDS011;5167;52.164;10.530;2023-11-19T10:07:30;20.80;;;4.00;;
10244;SDS011;5167;52.164;10.530;2023-11-19T10:09:58;19.23;;;3.95;;
10244;SDS011;5167;52.164;10.530;2023-11-19T10:12:30;20.63;;;5.43;;
10244;SDS011;5167;52.164;10.530;2023-11-19T10:14:56;15.93;;;4.05;;
10244;SDS011;5167;52.164;10.530;2023-11-19T10:17:28;19.75;;;3.90;;
10244;SDS011;5167;52.164;10.530;2023-11-19T10:19:57;23.08;;;4.15;;
10244;SDS011;5167;52.164;10.530;2023-11-19T10:22:23;25.20;;;5.32;;
10244;SDS011;5167;52.164;10.530;2023-11-19T10:24:50;15.45;;;3.75;;
10244;SDS011;5167;52.164;10.530;2023-11-19T10:27:15;14.32;;;4.25;;
10244;SDS011;5167;52.164;10.530;2023-11-19T10:29:43;21.08;;;7.65;;
10244;SDS011;5167;52.164;10.530;2023-11-19T10:32:13;22.98;;;7.97;;
10244;SDS011;5167;52.164;10.530;2023-11-19T10:34:40;23.27;;;7.68;;
10244;SDS011;5167;52.164;10.530;2023-11-19T10:37:06;14.63;;;3.65;;
10244;SDS011;5167;52.164;10.530;2023-11-19T10:42:19;23.17;;;6.70;;
10244;SDS011;5167;52.164;10.530;2023-11-19T10:44:45;22.27;;;3.67;;
10244;SDS011;5167;52.164;10.530;2023-11-19T10:47:10;19.10;;;3.92;;
10244;SDS011;5167;52.164;10.530;2023-11-19T10:49:38;12.60;;;3.60;;
10244;SDS011;5167;52.164;10.530;2023-11-19T10:52:04;11.00;;;3.75;;
10244;SDS011;5167;52.164;10.530;2023-11-19T10:54:30;13.43;;;3.78;;
10244;SDS011;5167;52.164;10.530;2023-11-19T10:57:01;18.30;;;4.22;;
10244;SDS011;5167;52.164;10.530;2023-11-19T10:59:28;15.48;;;4.22;;
10244;SDS011;5167;52.164;10.530;2023-11-19T11:01:56;16.92;;;4.15;;
10244;SDS011;5167;52.164;10.530;2023-11-19T11:04:25;18.70;;;3.28;;
10244;SDS011;5167;52.164;10.530;2023-11-19T11:06:54;12.25;;;3.13;;
10244;SDS011;5167;52.164;10.530;2023-11-19T11:09:21;13.15;;;3.05;;
10244;SDS011;5167;52.164;10.530;2023-11-19T11:11:48;18.95;;;3.45;;
10244;SDS011;5167;52.164;10.530;2023-11-19T11:14:16;12.95;;;3.47;;
10244;SDS011;5167;52.164;10.530;2023-11-19T11:16:46;12.93;;;3.67;;
10244;SDS011;5167;52.164;10.530;2023-11-19T11:19:13;12.70;;;2.83;;
10244;SDS011;5167;52.164;10.530;2023-11-19T11:21:42;19.85;;;4.13;;
10244;SDS011;5167;52.164;10.530;2023-11-19T11:24:30;16.30;;;5.38;;
10244;SDS011;5167;52.164;10.530;2023-11-19T11:27:37;13.20;;;3.85;;
10244;SDS011;5167;52.164;10.530;2023-11-19T11:30:11;18.05;;;3.88;;
10244;SDS011;5167;52.164;10.530;2023-11-19T11:33:02;16.23;;;3.55;;
10244;SDS011;5167;52.164;10.530;2023-11-19T11:35:52;19.95;;;2.92;;
10244;SDS011;5167;52.164;10.530;2023-11-19T11:38:26;12.70;;;3.65;;
10244;SDS011;5167;52.164;10.530;2023-11-19T11:43:53;23.85;;;3.40;;
10244;SDS011;5167;52.164;10.530;2023-11-19T11:48:59;13.77;;;3.38;;
10244;SDS011;5167;52.164;10.530;2023-11-19T11:54:10;14.80;;;3.58;;
10244;SDS011;5167;52.164;10.530;2023-11-19T11:59:36;15.43;;;3.78;;
10244;SDS011;5167;52.164;10.530;2023-11-19T12:02:03;14.30;;;4.28;;
10244;SDS011;5167;52.164;10.530;2023-11-19T12:04:29;17.60;;;3.83;;
10244;SDS011;5167;52.164;10.530;2023-11-19T12:07:08;14.77;;;5.00;;
10244;SDS011;5167;52.164;10.530;2023-11-19T12:09:39;15.00;;;4.50;;
10244;SDS011;5167;52.164;10.530;2023-11-19T12:19:59;13.48;;;3.80;;
10244;SDS011;5167;52.164;10.530;2023-11-19T12:22:25;13.50;;;3.35;;
10244;SDS011;5167;52.164;10.530;2023-11-19T12:24:50;21.48;;;3.90;;
10244;SDS011;5167;52.164;10.530;2023-11-19T12:27:18;17.38;;;4.22;;
10244;SDS011;5167;52.164;10.530;2023-11-19T12:29:47;14.85;;;3.45;;
10244;SDS011;5167;52.164;10.530;2023-11-19T12:32:12;19.02;;;3.92;;
10244;SDS011;5167;52.164;10.530;2023-11-19T12:34:38;18.08;;;5.40;;
10244;SDS011;5167;52.164;10.530;2023-11-19T12:37:04;19.30;;;4.22;;
10244;SDS011;5167;52.164;10.530;2023-11-19T12:39:30;15.30;;;3.65;;
10244;SDS011;5167;52.164;10.530;2023-11-19T12:41:56;16.90;;;3.35;;
10244;SDS011;5167;52.164;10.530;2023-11-19T12:44:24;13.93;;;2.83;;
10244;SDS011;5167;52.164;10.530;2023-11-19T12:47:03;11.02;;;3.45;;
10244;SDS011;5167;52.164;10.530;2023-11-19T12:49:29;14.85;;;3.47;;
10244;SDS011;5167;52.164;10.530;2023-11-19T12:51:55;19.48;;;3.65;;
10244;SDS011;5167;52.164;10.530;2023-11-19T12:54:31;14.75;;;2.90;;
10244;SDS011;5167;52.164;10.530;2023-11-19T12:56:57;16.95;;;3.67;;
10244;SDS011;5167;52.164;10.530;2023-11-19T12:59:23;18.63;;;4.10;;
10244;SDS011;5167;52.164;10.530;2023-11-19T13:01:58;16.42;;;3.28;;
10244;SDS011;5167;52.164;10.530;2023-11-19T13:04:28;13.02;;;3.72;;
10244;SDS011;5167;52.164;10.530;2023-11-19T13:06:55;24.65;;;4.22;;
10244;SDS011;5167;52.164;10.530;2023-11-19T13:09:22;16.38;;;4.15;;
10244;SDS011;5167;52.164;10.530;2023-11-19T13:11:51;16.70;;;3.70;;
10244;SDS011;5167;52.164;10.530;2023-11-19T13:14:18;15.32;;;3.65;;
10244;SDS011;5167;52.164;10.530;2023-11-19T13:16:44;14.15;;;3.95;;
10244;SDS011;5167;52.164;10.530;2023-11-19T13:19:13;14.68;;;3.83;;
10244;SDS011;5167;52.164;10.530;2023-11-19T13:21:41;15.90;;;3.60;;
10244;SDS011;5167;52.164;10.530;2023-11-19T13:24:07;15.07;;;4.35;;
10244;SDS011;5167;52.164;10.530;2023-11-19T13:26:32;16.95;;;3.75;;
10244;SDS011;5167;52.164;10.530;2023-11-19T13:28:58;11.93;;;3.33;;
10244;SDS011;5167;52.164;10.530;2023-11-19T13:31:23;17.85;;;3.55;;
10244;SDS011;5167;52.164;10.530;2023-11-19T13:33:49;13.88;;;3.33;;
10244;SDS011;5167;52.164;10.530;2023-11-19T13:36:15;12.50;;;4.00;;
10244;SDS011;5167;52.164;10.530;2023-11-19T13:38:40;13.80;;;3.40;;
10244;SDS011;5167;52.164;10.530;2023-11-19T13:41:07;12.63;;;2.92;;
10244;SDS011;5167;52.164;10.530;2023-11-19T13:43:35;14.10;;;3.30;;
10244;SDS011;5167;52.164;10.530;2023-11-19T13:46:00;11.88;;;3.03;;
10244;SDS011;5167;52.164;10.530;2023-11-19T13:48:26;15.02;;;3.38;;
10244;SDS011;5167;52.164;10.530;2023-11-19T13:50:53;10.25;;;3.08;;
10244;SDS011;5167;52.164;10.530;2023-11-19T13:53:20;12.27;;;2.92;;
10244;SDS011;5167;52.164;10.530;2023-11-19T13:55:45;20.05;;;3.80;;
10244;SDS011;5167;52.164;10.530;2023-11-19T13:58:11;14.10;;;3.22;;
10244;SDS011;5167;52.164;10.530;2023-11-19T14:00:36;12.98;;;3.40;;
10244;SDS011;5167;52.164;10.530;2023-11-19T14:03:02;14.38;;;3.38;;
10244;SDS011;5167;52.164;10.530;2023-11-19T14:05:28;21.02;;;3.67;;
10244;SDS011;5167;52.164;10.530;2023-11-19T14:07:53;16.30;;;6.05;;
10244;SDS011;5167;52.164;10.530;2023-11-19T14:10:21;10.13;;;3.05;;
10244;SDS011;5167;52.164;10.530;2023-11-19T14:12:47;14.65;;;3.95;;
10244;SDS011;5167;52.164;10.530;2023-11-19T14:15:14;12.40;;;3.50;;
10244;SDS011;5167;52.164;10.530;2023-11-19T14:17:42;10.63;;;3.17;;
10244;SDS011;5167;52.164;10.530;2023-11-19T14:20:08;15.35;;;3.28;;
10244;SDS011;5167;52.164;10.530;2023-11-19T14:22:43;18.25;;;3.97;;
10244;SDS011;5167;52.164;10.530;2023-11-19T14:25:10;15.23;;;3.47;;
10244;SDS011;5167;52.164;10.530;2023-11-19T14:27:39;8.93;;;2.90;;
10244;SDS011;5167;52.164;10.530;2023-11-19T14:30:06;18.52;;;3.20;;
10244;SDS011;5167;52.164;10.530;2023-11-19T14:32:33;19.20;;;3.17;;
10244;SDS011;5167;52.164;10.530;2023-11-19T14:34:58;21.52;;;3.03;;
10244;SDS011;5167;52.164;10.530;2023-11-19T14:37:24;12.05;;;3.42;;
10244;SDS011;5167;52.164;10.530;2023-11-19T14:39:49;12.90;;;3.75;;
10244;SDS011;5167;52.164;10.530;2023-11-19T14:42:18;21.10;;;5.95;;
10244;SDS011;5167;52.164;10.530;2023-11-19T14:44:43;17.40;;;4.25;;
10244;SDS011;5167;52.164;10.530;2023-11-19T14:47:09;12.80;;;3.58;;
10244;SDS011;5167;52.164;10.530;2023-11-19T14:49:35;17.73;;;3.85;;
10244;SDS011;5167;52.164;10.530;2023-11-19T14:52:01;22.55;;;4.70;;
10244;SDS011;5167;52.164;10.530;2023-11-19T14:54:28;17.92;;;3.95;;
10244;SDS011;5167;52.164;10.530;2023-11-19T14:56:53;18.60;;;4.65;;
10244;SDS011;5167;52.164;10.530;2023-11-19T14:59:19;15.18;;;4.38;;
10244;SDS011;5167;52.164;10.530;2023-11-19T15:01:45;13.02;;;3.67;;
10244;SDS011;5167;52.164;10.530;2023-11-19T15:04:10;18.67;;;3.55;;